createdAt,value
2023-01-10T00:00:04.954Z,96369.97
2023-01-10T00:02:31.992Z,96372.47
2023-01-10T00:04:58.712Z,96369.81
2023-01-10T00:07:25.333Z,96373.31
2023-01-10T00:09:51.952Z,96378.16
2023-01-10T00:12:37.334Z,96375.00
2023-01-10T00:15:04.239Z,96382.56
2023-01-10T00:17:30.962Z,96383.63
2023-01-10T00:19:57.579Z,96388.75
2023-01-10T00:22:25.900Z,96392.97
2023-01-10T00:24:52.733Z,96396.88
2023-01-10T00:27:22.798Z,96394.50
2023-01-10T00:29:52.365Z,96404.97
2023-01-10T00:32:20.286Z,96396.94
2023-01-10T00:34:47.439Z,96399.25
2023-01-10T00:37:14.768Z,96407.63
2023-01-10T00:39:41.428Z,96412.97
2023-01-10T00:42:28.869Z,96422.50
2023-01-10T00:44:55.658Z,96429.31
2023-01-10T00:47:22.307Z,96429.66
2023-01-10T00:49:48.983Z,96437.84
2023-01-10T00:52:15.597Z,96446.16
2023-01-10T00:54:42.216Z,96458.56
2023-01-10T00:57:08.876Z,96463.72
2023-01-10T00:59:35.537Z,96471.31
2023-01-10T01:02:02.217Z,96479.72
2023-01-10T01:04:34.131Z,96480.75
2023-01-10T01:07:02.155Z,96488.47
2023-01-10T01:09:30.408Z,96493.72
2023-01-10T01:11:57.628Z,96502.22
2023-01-10T01:14:24.988Z,96511.56
2023-01-10T01:16:51.755Z,96512.34
2023-01-10T01:19:18.488Z,96512.81
2023-01-10T01:21:45.199Z,96520.25
2023-01-10T01:24:12.050Z,96527.09
2023-01-10T01:26:39.864Z,96536.53
2023-01-10T01:29:06.556Z,96531.31
2023-01-10T01:31:33.220Z,96545.03
2023-01-10T01:33:59.941Z,96559.91
2023-01-10T01:36:26.593Z,96566.19
2023-01-10T01:38:53.180Z,96580.84
2023-01-10T01:41:38.317Z,96579.53
2023-01-10T01:44:08.025Z,96587.47
2023-01-10T01:46:38.695Z,96598.13
2023-01-10T01:49:09.292Z,96606.03
2023-01-10T01:51:36.000Z,96609.16
2023-01-10T01:54:07.710Z,96604.03
2023-01-10T01:56:55.991Z,96608.91
2023-01-10T01:59:30.469Z,96614.81
2023-01-10T02:02:03.964Z,96615.88
2023-01-10T02:04:38.375Z,96625.78
2023-01-10T02:07:05.582Z,96641.53
2023-01-10T02:09:42.903Z,96646.94
2023-01-10T02:12:10.368Z,96644.38
2023-01-10T02:14:38.437Z,96653.41
2023-01-10T02:17:05.835Z,96651.91
2023-01-10T02:19:38.156Z,96659.63
2023-01-10T02:22:45.988Z,96665.59
2023-01-10T02:25:15.498Z,96662.75
2023-01-10T02:28:06.941Z,96665.31
2023-01-10T02:31:13.911Z,96662.66
2023-01-10T02:33:58.206Z,96664.00
2023-01-10T02:36:40.800Z,96666.50
2023-01-10T02:39:29.805Z,96672.13
2023-01-10T02:41:58.072Z,96669.41
2023-01-10T02:44:46.632Z,96690.34
2023-01-10T02:47:14.514Z,96684.31
2023-01-10T02:49:51.727Z,96693.97
2023-01-10T02:52:27.988Z,96707.81
2023-01-10T02:54:59.738Z,96709.38
2023-01-10T02:58:15.863Z,96718.78
2023-01-10T03:00:48.552Z,96728.81
2023-01-10T03:03:20.500Z,96746.06
2023-01-10T03:05:53.307Z,96746.13
2023-01-10T03:08:30.864Z,96755.81
2023-01-10T03:11:03.278Z,96762.34
2023-01-10T03:13:52.071Z,96772.66
2023-01-10T03:16:23.063Z,96776.75
2023-01-10T03:18:58.247Z,96774.16
2023-01-10T03:21:27.662Z,96782.88
2023-01-10T03:23:58.336Z,96790.88
2023-01-10T03:26:35.987Z,96837.22
2023-01-10T03:29:08.015Z,96809.19
2023-01-10T03:31:40.794Z,96841.63
2023-01-10T03:34:07.506Z,96819.69
2023-01-10T03:36:45.941Z,96830.25
2023-01-10T03:39:40.383Z,96808.91
2023-01-10T03:42:20.797Z,96823.31
2023-01-10T03:45:09.601Z,96827.44
2023-01-10T03:47:41.336Z,96824.63
2023-01-10T03:50:18.822Z,96830.00
2023-01-10T03:52:45.740Z,96849.06
2023-01-10T03:55:15.066Z,96861.41
2023-01-10T03:57:45.769Z,96862.44
2023-01-10T04:00:13.930Z,96861.94
2023-01-10T04:02:40.681Z,96873.00
2023-01-10T04:05:07.955Z,96877.94
2023-01-10T04:07:34.997Z,96881.88
2023-01-10T04:10:01.592Z,96884.44
2023-01-10T04:12:28.364Z,96866.47
2023-01-10T04:14:55.297Z,96855.19
2023-01-10T04:17:22.105Z,96869.16
2023-01-10T04:19:48.937Z,96868.38
2023-01-10T04:22:15.643Z,96855.03
2023-01-10T04:24:44.231Z,96859.91
2023-01-10T04:27:11.141Z,96865.03
2023-01-10T04:29:37.891Z,96880.22
2023-01-10T04:32:04.720Z,96883.81
2023-01-10T04:34:31.433Z,96900.59
2023-01-10T04:36:58.057Z,96905.72
2023-01-10T04:39:24.762Z,96909.31
2023-01-10T04:41:51.465Z,96912.91
2023-01-10T04:44:18.134Z,96920.16
2023-01-10T04:46:44.896Z,96925.50
2023-01-10T04:49:11.697Z,96925.91
2023-01-10T04:51:38.463Z,96932.59
2023-01-10T04:54:05.244Z,96942.56
2023-01-10T04:56:31.895Z,96943.31
2023-01-10T04:58:58.793Z,96946.88
2023-01-10T05:01:26.700Z,96960.78
2023-01-10T05:03:56.425Z,96963.53
2023-01-10T05:06:24.389Z,96960.47
2023-01-10T05:08:51.119Z,96970.03
2023-01-10T05:11:17.839Z,96963.09
2023-01-10T05:13:46.467Z,96972.91
2023-01-10T05:16:14.554Z,96984.44
2023-01-10T05:18:41.547Z,96989.84
2023-01-10T05:21:10.662Z,96987.00
2023-01-10T05:23:38.057Z,96987.56
2023-01-10T05:26:25.104Z,96982.69
2023-01-10T05:28:51.847Z,96990.13
2023-01-10T05:31:20.027Z,96987.84
2023-01-10T05:33:48.474Z,96987.09
2023-01-10T05:36:15.747Z,96989.72
2023-01-10T05:38:42.429Z,96985.63
2023-01-10T05:41:09.316Z,96988.81
2023-01-10T05:43:36.164Z,96987.38
2023-01-10T05:46:03.294Z,96979.81
2023-01-10T05:48:30.022Z,96989.94
2023-01-10T05:50:57.805Z,97001.34
2023-01-10T05:53:24.575Z,96996.03
2023-01-10T05:55:59.549Z,97002.53
2023-01-10T05:58:26.530Z,97001.19
2023-01-10T06:00:54.899Z,97002.00
2023-01-10T06:03:21.716Z,97013.31
2023-01-10T06:05:49.100Z,97006.94
2023-01-10T06:08:16.127Z,96998.91
2023-01-10T06:10:43.381Z,97013.84
2023-01-10T06:13:10.255Z,97016.94
2023-01-10T06:15:37.266Z,97013.38
2023-01-10T06:18:04.585Z,97019.59
2023-01-10T06:20:31.442Z,97029.88
2023-01-10T06:22:58.997Z,97044.53
2023-01-10T06:25:25.913Z,97057.59
2023-01-10T06:27:52.540Z,97076.97
2023-01-10T06:30:19.493Z,97070.81
2023-01-10T06:32:46.333Z,97062.06
2023-01-10T06:35:12.991Z,97058.75
2023-01-10T06:37:39.709Z,97062.34
2023-01-10T06:40:07.033Z,97050.75
2023-01-10T06:42:33.751Z,97057.75
2023-01-10T06:45:00.561Z,97057.97
2023-01-10T06:47:27.275Z,97077.06
2023-01-10T06:49:54.191Z,97082.13
2023-01-10T06:52:21.035Z,97090.19
2023-01-10T06:54:49.139Z,97092.72
2023-01-10T06:57:15.716Z,97099.88
2023-01-10T06:59:42.405Z,97109.13
2023-01-10T07:02:11.712Z,97117.88
2023-01-10T07:04:38.436Z,97123.53
2023-01-10T07:07:05.143Z,97122.25
2023-01-10T07:09:31.749Z,97119.97
2023-01-10T07:11:58.650Z,97122.31
2023-01-10T07:14:25.435Z,97121.56
2023-01-10T07:16:52.113Z,97125.91
2023-01-10T07:19:20.122Z,97123.84
2023-01-10T07:21:47.079Z,97131.31
2023-01-10T07:24:13.775Z,97128.22
2023-01-10T07:26:40.716Z,97137.47
2023-01-10T07:29:07.424Z,97140.31
2023-01-10T07:31:34.263Z,97139.47
2023-01-10T07:34:01.049Z,97154.91
2023-01-10T07:36:27.784Z,97163.13
2023-01-10T07:38:54.550Z,97177.78
2023-01-10T07:41:21.320Z,97189.75
2023-01-10T07:43:49.107Z,97205.13
2023-01-10T07:46:16.149Z,97215.22
2023-01-10T07:48:42.981Z,97220.75
2023-01-10T07:51:09.950Z,97234.31
2023-01-10T07:53:36.550Z,97262.13
2023-01-10T07:56:04.605Z,97265.97
2023-01-10T07:58:31.921Z,97313.91
2023-01-10T08:01:03.719Z,97329.63
2023-01-10T08:03:30.776Z,97363.69
2023-01-10T08:06:00.136Z,97376.91
2023-01-10T08:08:27.412Z,97386.97
2023-01-10T08:10:54.381Z,97407.94
2023-01-10T08:13:21.094Z,97429.69
2023-01-10T08:15:50.518Z,97490.78
2023-01-10T08:18:17.585Z,97499.03
2023-01-10T08:20:44.268Z,97489.75
2023-01-10T08:23:10.913Z,97493.50
2023-01-10T08:25:39.484Z,97496.44
2023-01-10T08:28:06.500Z,97505.75
2023-01-10T08:30:33.430Z,97475.25
2023-01-10T08:33:02.958Z,97458.22
2023-01-10T08:35:29.886Z,97454.53
2023-01-10T08:38:00.362Z,97471.19
2023-01-10T08:40:27.627Z,97466.06
2023-01-10T08:43:03.448Z,97459.06
2023-01-10T08:45:30.713Z,97461.84
2023-01-10T08:47:57.702Z,97461.81
2023-01-10T08:50:25.238Z,97461.59
2023-01-10T08:52:52.189Z,97454.03
2023-01-10T08:55:19.878Z,97482.75
2023-01-10T08:57:46.775Z,97491.81
2023-01-10T09:00:16.741Z,97508.56
2023-01-10T09:02:43.837Z,97499.97
2023-01-10T09:05:22.328Z,97514.81
2023-01-10T09:07:54.319Z,97527.66
2023-01-10T09:10:21.646Z,97517.34
2023-01-10T09:12:57.444Z,97518.00
2023-01-10T09:15:27.578Z,97519.63
2023-01-10T09:17:59.314Z,97535.81
2023-01-10T09:20:27.331Z,97540.16
2023-01-10T09:22:54.580Z,97554.41
2023-01-10T09:25:21.378Z,97562.88
2023-01-10T09:27:48.387Z,97558.81
2023-01-10T09:30:15.429Z,97569.00
2023-01-10T09:32:42.153Z,97585.44
2023-01-10T09:35:08.915Z,97596.75
2023-01-10T09:37:35.761Z,97599.88
2023-01-10T09:40:02.601Z,97612.16
2023-01-10T09:42:57.426Z,97611.69
2023-01-10T09:45:52.356Z,97635.03
2023-01-10T09:48:27.237Z,97681.84
2023-01-10T09:51:10.043Z,97704.41
2023-01-10T09:53:40.036Z,97732.81
2023-01-10T09:56:08.730Z,97745.13
2023-01-10T09:58:38.564Z,97757.91
2023-01-10T10:01:11.711Z,97749.28
2023-01-10T10:03:48.634Z,97797.69
2023-01-10T10:06:15.515Z,97848.28
2023-01-10T10:08:45.678Z,97827.50
2023-01-10T10:11:27.337Z,97863.75
2023-01-10T10:14:07.576Z,97915.63
2023-01-10T10:16:41.613Z,97886.97
2023-01-10T10:19:26.636Z,97876.97
2023-01-10T10:21:59.161Z,97859.72
2023-01-10T10:25:04.654Z,97874.72
2023-01-10T10:27:37.346Z,97902.72
2023-01-10T10:30:30.245Z,97909.66
2023-01-10T10:33:09.596Z,97900.09
2023-01-10T10:35:40.848Z,97948.00
2023-01-10T10:38:39.356Z,97960.28
2023-01-10T10:41:17.047Z,97985.63
2023-01-10T10:43:46.134Z,97984.22
2023-01-10T10:46:14.885Z,97998.94
2023-01-10T10:48:59.026Z,97985.97
2023-01-10T10:51:28.057Z,98018.06
2023-01-10T10:53:56.813Z,98040.06
2023-01-10T10:56:25.670Z,98047.56
2023-01-10T10:58:55.786Z,98071.34
2023-01-10T11:01:25.553Z,98064.88
2023-01-10T11:03:58.484Z,98059.56
2023-01-10T11:06:29.097Z,98089.13
2023-01-10T11:09:00.131Z,98091.09
2023-01-10T11:11:34.433Z,98059.75
2023-01-10T11:14:03.838Z,98061.34
2023-01-10T11:16:37.294Z,98070.38
2023-01-10T11:19:11.361Z,98094.97
2023-01-10T11:21:40.916Z,98081.75
2023-01-10T11:24:39.552Z,98081.72
2023-01-10T11:27:21.911Z,98090.50
2023-01-10T11:30:00.853Z,98070.88
2023-01-10T11:32:40.115Z,98066.75
2023-01-10T11:35:17.300Z,98060.06
2023-01-10T11:37:44.068Z,98060.88
2023-01-10T11:40:16.031Z,98059.59
2023-01-10T11:42:43.299Z,98024.94
2023-01-10T11:45:21.354Z,98021.28
2023-01-10T11:47:53.556Z,98005.22
2023-01-10T11:50:27.549Z,98020.50
2023-01-10T11:52:55.485Z,98015.03
2023-01-10T11:55:46.764Z,98012.22
2023-01-10T11:58:15.233Z,97993.06
2023-01-10T12:00:48.261Z,97992.69
2023-01-10T12:03:28.467Z,98002.25
2023-01-10T12:05:58.587Z,97983.38
2023-01-10T12:08:29.770Z,97978.81
2023-01-10T12:10:59.107Z,97966.66
2023-01-10T12:13:28.285Z,97963.53
2023-01-10T12:16:17.421Z,97943.31
2023-01-10T12:18:44.499Z,97941.81
2023-01-10T12:21:14.262Z,97940.50
2023-01-10T12:23:44.580Z,97963.03
2023-01-10T12:26:13.848Z,97978.75
2023-01-10T12:28:58.744Z,97977.22
2023-01-10T12:31:26.268Z,97972.94
2023-01-10T12:34:02.923Z,97983.69
2023-01-10T12:36:32.580Z,97966.13
2023-01-10T12:39:19.671Z,97973.88
2023-01-10T12:42:12.964Z,97983.94
2023-01-10T12:44:42.859Z,97970.22
2023-01-10T12:47:34.014Z,97975.66
2023-01-10T12:50:14.027Z,97977.78
2023-01-10T12:52:49.063Z,97965.66
2023-01-10T12:55:21.711Z,97950.25
2023-01-10T12:57:53.955Z,97935.50
2023-01-10T13:00:48.680Z,97929.50
2023-01-10T13:03:36.249Z,97917.94
2023-01-10T13:06:03.597Z,97908.84
2023-01-10T13:08:34.694Z,97919.38
2023-01-10T13:11:03.063Z,97937.25
2023-01-10T13:13:52.321Z,97930.28
2023-01-10T13:16:35.823Z,97913.00
2023-01-10T13:19:08.609Z,97924.78
2023-01-10T13:21:36.737Z,97933.22
2023-01-10T13:24:07.932Z,97904.44
2023-01-10T13:26:46.857Z,97948.63
2023-01-10T13:29:20.047Z,97947.50
2023-01-10T13:31:49.777Z,97922.28
2023-01-10T13:34:19.294Z,97927.69
2023-01-10T13:36:56.811Z,97910.31
2023-01-10T13:39:37.266Z,97951.78
2023-01-10T13:42:22.209Z,97905.56
2023-01-10T13:45:01.387Z,97907.00
2023-01-10T13:47:40.303Z,97890.72
2023-01-10T13:50:36.470Z,97894.41
2023-01-10T13:53:03.887Z,97862.88
2023-01-10T13:55:46.596Z,97870.69
2023-01-10T13:58:16.288Z,97862.94
2023-01-10T14:01:14.129Z,97847.63
2023-01-10T14:03:52.425Z,97860.78
2023-01-10T14:06:28.457Z,97872.41
2023-01-10T14:09:00.508Z,97872.66
2023-01-10T14:11:49.258Z,97825.16
2023-01-10T14:14:30.004Z,97836.19
2023-01-10T14:17:23.854Z,97809.41
2023-01-10T14:20:12.340Z,97820.75
2023-01-10T14:22:58.561Z,97802.19
2023-01-10T14:25:26.849Z,97747.75
2023-01-10T14:27:55.153Z,97752.19
2023-01-10T14:30:37.209Z,97734.63
2023-01-10T14:33:19.438Z,97736.47
2023-01-10T14:35:50.424Z,97723.84
2023-01-10T14:38:25.991Z,97713.78
2023-01-10T14:41:01.111Z,97716.88
2023-01-10T14:43:33.964Z,97699.34
2023-01-10T14:46:22.773Z,97679.47
2023-01-10T14:48:52.177Z,97679.97
2023-01-10T14:51:23.725Z,97677.44
2023-01-10T14:54:02.147Z,97662.72
2023-01-10T14:56:30.292Z,97667.41
2023-01-10T14:58:59.621Z,97665.34
2023-01-10T15:01:29.990Z,97651.16
2023-01-10T15:03:57.564Z,97655.56
2023-01-10T15:06:26.070Z,97670.84
2023-01-10T15:08:58.422Z,97646.59
2023-01-10T15:11:27.181Z,97652.53
2023-01-10T15:13:59.870Z,97640.41
2023-01-10T15:16:28.742Z,97646.66
2023-01-10T15:18:56.814Z,97631.69
2023-01-10T15:21:24.557Z,97623.16
2023-01-10T15:23:51.843Z,97628.06
2023-01-10T15:26:37.295Z,97631.44
2023-01-10T15:29:19.478Z,97614.47
2023-01-10T15:31:46.757Z,97603.91
2023-01-10T15:34:19.887Z,97606.75
2023-01-10T15:36:51.452Z,97602.63
2023-01-10T15:39:24.119Z,97602.38
2023-01-10T15:41:56.999Z,97592.06
2023-01-10T15:44:24.791Z,97585.38
2023-01-10T15:46:57.929Z,97590.00
2023-01-10T15:49:28.244Z,97582.50
2023-01-10T15:51:54.999Z,97563.47
2023-01-10T15:54:24.262Z,97562.16
2023-01-10T15:56:53.608Z,97571.16
2023-01-10T15:59:23.012Z,97570.13
2023-01-10T16:02:25.766Z,97556.47
2023-01-10T16:04:57.873Z,97548.47
2023-01-10T16:07:36.138Z,97546.91
2023-01-10T16:10:15.562Z,97536.91
2023-01-10T16:13:01.517Z,97529.44
2023-01-10T16:15:35.564Z,97536.34
2023-01-10T16:18:02.675Z,97523.00
2023-01-10T16:20:32.252Z,97516.28
2023-01-10T16:22:59.996Z,97531.00
2023-01-10T16:25:47.818Z,97509.09
2023-01-10T16:28:16.578Z,97499.47
2023-01-10T16:30:46.765Z,97520.84
2023-01-10T16:33:17.668Z,97516.72
2023-01-10T16:35:45.641Z,97503.13
2023-01-10T16:38:13.525Z,97506.41
2023-01-10T16:40:43.000Z,97513.09
2023-01-10T16:43:23.442Z,97503.31
2023-01-10T16:46:00.176Z,97515.94
2023-01-10T16:48:29.124Z,97504.06
2023-01-10T16:51:05.823Z,97488.34
2023-01-10T16:53:32.443Z,97489.41
2023-01-10T16:55:59.100Z,97491.97
2023-01-10T16:58:25.757Z,97455.41
2023-01-10T17:00:52.831Z,97441.72
2023-01-10T17:03:24.569Z,97449.22
2023-01-10T17:05:51.739Z,97462.56
2023-01-10T17:08:23.722Z,97455.59
2023-01-10T17:10:53.916Z,97436.50
2023-01-10T17:13:25.665Z,97432.09
2023-01-10T17:15:52.437Z,97431.81
2023-01-10T17:18:19.286Z,97413.88
2023-01-10T17:20:46.105Z,97406.88
2023-01-10T17:23:15.150Z,97386.28
2023-01-10T17:25:42.316Z,97373.41
2023-01-10T17:28:11.773Z,97360.69
2023-01-10T17:30:42.756Z,97350.59
2023-01-10T17:33:13.382Z,97323.94
2023-01-10T17:35:41.475Z,97300.44
2023-01-10T17:38:12.011Z,97257.50
2023-01-10T17:40:43.921Z,97264.31
2023-01-10T17:43:11.414Z,97252.75
2023-01-10T17:45:42.600Z,97242.97
2023-01-10T17:48:09.890Z,97221.06
2023-01-10T17:50:37.035Z,97188.72
2023-01-10T17:53:03.738Z,97170.13
2023-01-10T17:55:30.551Z,97152.91
2023-01-10T17:57:57.290Z,97138.00
2023-01-10T18:00:24.116Z,97103.47
2023-01-10T18:02:51.106Z,97078.81
2023-01-10T18:05:18.171Z,97064.41
2023-01-10T18:07:44.989Z,97046.16
2023-01-10T18:10:11.873Z,97027.31
2023-01-10T18:12:38.626Z,97019.38
2023-01-10T18:15:05.792Z,97000.38
2023-01-10T18:17:32.564Z,96994.66
2023-01-10T18:19:59.204Z,96991.66
2023-01-10T18:22:44.642Z,96983.94
2023-01-10T18:25:11.398Z,96971.34
2023-01-10T18:27:38.102Z,96956.47
2023-01-10T18:30:05.241Z,96949.81
2023-01-10T18:32:32.833Z,96943.88
2023-01-10T18:35:00.058Z,96944.66
2023-01-10T18:37:26.860Z,96930.03
2023-01-10T18:39:53.650Z,96925.44
2023-01-10T18:42:20.460Z,96923.13
2023-01-10T18:44:47.178Z,96915.69
2023-01-10T18:47:20.639Z,96917.75
2023-01-10T18:49:48.335Z,96891.81
2023-01-10T18:52:16.762Z,96884.84
2023-01-10T18:54:43.467Z,96881.72
2023-01-10T18:57:10.100Z,96882.75
2023-01-10T18:59:39.749Z,96867.03
2023-01-10T19:02:10.297Z,96855.50
2023-01-10T19:04:37.095Z,96841.81
2023-01-10T19:07:03.688Z,96832.84
2023-01-10T19:09:30.385Z,96831.53
2023-01-10T19:11:57.206Z,96824.09
2023-01-10T19:14:23.859Z,96820.97
2023-01-10T19:16:50.601Z,96809.91
2023-01-10T19:19:17.317Z,96806.06
2023-01-10T19:21:45.308Z,96798.53
2023-01-10T19:24:22.937Z,96790.88
2023-01-10T19:26:50.355Z,96792.13
2023-01-10T19:29:17.455Z,96787.69
2023-01-10T19:31:44.826Z,96770.22
2023-01-10T19:34:12.709Z,96770.97
2023-01-10T19:36:41.735Z,96773.28
2023-01-10T19:39:09.925Z,96768.59
2023-01-10T19:41:38.309Z,96768.91
2023-01-10T19:44:12.152Z,96765.50
2023-01-10T19:46:40.378Z,96757.47
2023-01-10T19:49:08.658Z,96754.81
2023-01-10T19:51:39.413Z,96755.78
2023-01-10T19:54:07.882Z,96765.06
2023-01-10T19:56:35.531Z,96747.78
2023-01-10T19:59:02.217Z,96739.28
2023-01-10T20:01:30.791Z,96734.59
2023-01-10T20:04:01.208Z,96727.38
2023-01-10T20:06:29.957Z,96725.56
2023-01-10T20:08:57.540Z,96717.81
2023-01-10T20:11:26.130Z,96720.59
2023-01-10T20:13:53.603Z,96736.53
2023-01-10T20:16:23.026Z,96721.81
2023-01-10T20:18:51.356Z,96718.47
2023-01-10T20:21:19.372Z,96715.91
2023-01-10T20:23:46.391Z,96703.34
2023-01-10T20:26:16.244Z,96704.00
2023-01-10T20:28:44.230Z,96710.50
2023-01-10T20:31:15.488Z,96707.91
2023-01-10T20:33:42.368Z,96710.94
2023-01-10T20:36:12.802Z,96699.13
2023-01-10T20:38:39.901Z,96706.59
2023-01-10T20:41:11.244Z,96705.25
2023-01-10T20:43:38.524Z,96699.81
2023-01-10T20:46:12.926Z,96699.81
2023-01-10T20:48:40.821Z,96700.31
2023-01-10T20:51:10.843Z,96697.50
2023-01-10T20:53:37.685Z,96688.25
2023-01-10T20:56:11.263Z,96676.13
2023-01-10T20:58:39.792Z,96662.50
2023-01-10T21:01:07.409Z,96662.22
2023-01-10T21:03:34.324Z,96662.50
2023-01-10T21:06:01.824Z,96651.91
2023-01-10T21:08:31.358Z,96650.56
2023-01-10T21:10:58.571Z,96650.47
2023-01-10T21:13:26.036Z,96644.28
2023-01-10T21:15:57.388Z,96649.88
2023-01-10T21:18:26.979Z,96647.31
2023-01-10T21:20:55.606Z,96646.53
2023-01-10T21:23:24.415Z,96640.66
2023-01-10T21:25:52.882Z,96624.72
2023-01-10T21:28:20.253Z,96630.03
2023-01-10T21:30:47.224Z,96620.03
2023-01-10T21:33:14.015Z,96620.19
2023-01-10T21:35:40.729Z,96627.09
2023-01-10T21:38:07.331Z,96635.28
2023-01-10T21:40:34.417Z,96637.59
2023-01-10T21:43:01.037Z,96639.09
2023-01-10T21:45:28.603Z,96644.25
2023-01-10T21:47:55.763Z,96635.50
2023-01-10T21:50:22.725Z,96637.03
2023-01-10T21:52:49.588Z,96634.94
2023-01-10T21:55:16.859Z,96632.63
2023-01-10T21:57:43.573Z,96626.88
2023-01-10T22:00:10.900Z,96633.09
2023-01-10T22:02:40.771Z,96629.94
2023-01-10T22:05:08.328Z,96635.09
2023-01-10T22:07:35.037Z,96636.75
2023-01-10T22:10:01.781Z,96642.81
2023-01-10T22:12:30.605Z,96641.31
2023-01-10T22:14:57.604Z,96642.81
2023-01-10T22:17:24.849Z,96629.16
2023-01-10T22:19:51.798Z,96635.34
2023-01-10T22:22:18.991Z,96626.28
2023-01-10T22:24:47.982Z,96617.31
2023-01-10T22:27:16.027Z,96623.72
2023-01-10T22:29:43.441Z,96622.47
2023-01-10T22:32:10.148Z,96622.94
2023-01-10T22:34:36.892Z,96618.56
2023-01-10T22:37:03.575Z,96611.31
2023-01-10T22:39:30.241Z,96598.91
2023-01-10T22:41:57.015Z,96589.34
2023-01-10T22:44:26.765Z,96600.16
2023-01-10T22:46:55.592Z,96595.19
2023-01-10T22:49:22.900Z,96597.00
2023-01-10T22:51:50.010Z,96590.94
2023-01-10T22:54:17.068Z,96590.19
2023-01-10T22:56:44.871Z,96580.34
2023-01-10T22:59:11.928Z,96588.84
2023-01-10T23:01:39.227Z,96576.69
2023-01-10T23:04:06.347Z,96575.47
2023-01-10T23:06:33.062Z,96578.66
2023-01-10T23:08:59.824Z,96569.09
2023-01-10T23:11:26.446Z,96568.63
2023-01-10T23:13:53.181Z,96563.19
2023-01-10T23:16:28.830Z,96568.06
2023-01-10T23:18:57.281Z,96551.34
2023-01-10T23:21:24.696Z,96546.94
2023-01-10T23:23:51.378Z,96546.19
2023-01-10T23:26:18.508Z,96535.88
2023-01-10T23:28:50.125Z,96517.34
2023-01-10T23:31:22.356Z,96515.06
2023-01-10T23:33:50.504Z,96504.19
2023-01-10T23:36:17.721Z,96505.69
2023-01-10T23:38:44.832Z,96504.63
2023-01-10T23:41:11.571Z,96498.44
2023-01-10T23:43:38.227Z,96487.38
2023-01-10T23:46:06.155Z,96489.47
2023-01-10T23:48:33.092Z,96478.53
2023-01-10T23:51:00.113Z,96477.69
2023-01-10T23:53:27.153Z,96468.56
2023-01-10T23:55:54.116Z,96464.97
2023-01-10T23:58:20.781Z,96461.91
